Peshawbestown, Michigan
Current Conditions -  °F | °C
As of 8:53 PM on Tuesday 21 Oct 2014 (Local Time) from KTVC Reporting Station
Clear Clear  
Wind Chill: 38°   Ceiling: Unl
Heat Index: 42°   Visibility: 10mi
Dew Point: 33°   Wind: 7mph
Humidity: 70%   Direction: 360°N
Pressure: 30.26"   Gusts: NA
Location:  44.9784°N, 85.6488°W
Report Text: KTVC 220053Z 36006KT 10SM CLR 06/01 A3026 RMK AO2 SLP250 T00560006
Loading
Personal Weather Stations






























Interactive Weather Map
Tropical Storm Tracking
New forecast layout! Learn more

10-Day Weather Forecast

Advertisements
Track Severe Weather on mobile